createdAt,value
2019-03-06T00:00:11.601Z,996.57
2019-03-06T00:01:11.616Z,996.64
2019-03-06T00:02:11.579Z,996.58
2019-03-06T00:03:11.565Z,996.59
2019-03-06T00:04:11.581Z,996.62
2019-03-06T00:05:11.545Z,996.59
2019-03-06T00:06:16.629Z,996.64
2019-03-06T00:07:12.546Z,996.61
2019-03-06T00:08:11.510Z,996.64
2019-03-06T00:09:11.498Z,996.53
2019-03-06T00:10:11.488Z,996.54
2019-03-06T00:11:11.474Z,996.47
2019-03-06T00:12:11.482Z,996.49
2019-03-06T00:13:11.470Z,996.50
2019-03-06T00:14:11.440Z,996.46
2019-03-06T00:15:11.428Z,996.45
2019-03-06T00:16:11.421Z,996.45
2019-03-06T00:17:11.428Z,996.46
2019-03-06T00:18:11.400Z,996.44
2019-03-06T00:19:11.385Z,996.45
2019-03-06T00:20:11.372Z,996.38
2019-03-06T00:21:11.361Z,996.41
2019-03-06T00:22:11.372Z,996.39
2019-03-06T00:23:11.361Z,996.40
2019-03-06T00:24:11.327Z,996.35
2019-03-06T00:25:11.318Z,996.38
2019-03-06T00:26:11.307Z,996.34
2019-03-06T00:27:11.294Z,996.34
2019-03-06T00:28:11.308Z,996.23
2019-03-06T00:29:11.271Z,996.27
2019-03-06T00:30:11.263Z,996.30
2019-03-06T00:31:11.249Z,996.18
2019-03-06T00:32:11.238Z,996.25
2019-03-06T00:33:11.226Z,996.20
2019-03-06T00:34:11.230Z,996.19
2019-03-06T00:35:11.201Z,996.20
2019-03-06T00:36:11.190Z,996.19
2019-03-06T00:37:11.180Z,996.22
2019-03-06T00:38:11.167Z,996.19
2019-03-06T00:39:11.176Z,996.15
2019-03-06T00:40:11.149Z,996.19
2019-03-06T00:41:11.165Z,996.18
2019-03-06T00:42:11.128Z,996.12
2019-03-06T00:43:11.112Z,996.14
2019-03-06T00:44:11.119Z,996.13
2019-03-06T00:45:11.088Z,996.14
2019-03-06T00:46:11.080Z,996.19
2019-03-06T00:47:11.066Z,996.19
2019-03-06T00:48:11.059Z,996.20
2019-03-06T00:49:11.089Z,996.21
2019-03-06T00:50:11.034Z,996.14
2019-03-06T00:51:11.022Z,996.17
2019-03-06T00:52:11.009Z,996.18
2019-03-06T00:53:11.001Z,996.19
2019-03-06T00:54:10.992Z,996.12
2019-03-06T00:55:10.997Z,996.12
2019-03-06T00:56:10.968Z,996.10
2019-03-06T00:57:10.968Z,996.16
2019-03-06T00:58:10.944Z,996.11
2019-03-06T00:59:10.932Z,996.11
2019-03-06T01:00:10.943Z,996.14
2019-03-06T01:01:10.910Z,996.13
2019-03-06T01:02:10.901Z,996.16
2019-03-06T01:03:10.887Z,996.13
2019-03-06T01:04:10.875Z,996.16
2019-03-06T01:05:10.886Z,996.16
2019-03-06T01:06:10.852Z,996.15
2019-03-06T01:07:10.840Z,996.15
2019-03-06T01:08:10.830Z,996.06
2019-03-06T01:09:10.818Z,996.06
2019-03-06T01:10:10.808Z,996.00
2019-03-06T01:11:10.817Z,996.02
2019-03-06T01:12:10.784Z,995.98
2019-03-06T01:13:10.773Z,996.04
2019-03-06T01:14:10.762Z,996.00
2019-03-06T01:15:10.754Z,996.02
2019-03-06T01:16:10.758Z,996.05
2019-03-06T01:17:10.728Z,996.00
2019-03-06T01:18:10.717Z,996.07
2019-03-06T01:19:10.712Z,996.02
2019-03-06T01:20:10.695Z,996.02
2019-03-06T01:21:10.706Z,996.04
2019-03-06T01:22:10.672Z,996.03
2019-03-06T01:23:10.660Z,996.00
2019-03-06T01:24:10.649Z,996.04
2019-03-06T01:25:10.636Z,996.08
2019-03-06T01:26:10.626Z,996.08
2019-03-06T01:27:10.634Z,996.11
2019-03-06T01:28:10.606Z,996.04
2019-03-06T01:29:10.592Z,995.99
2019-03-06T01:30:10.583Z,996.04
2019-03-06T01:31:10.591Z,996.01
2019-03-06T01:32:10.568Z,996.01
2019-03-06T01:33:10.550Z,995.96
2019-03-06T01:34:10.538Z,995.94
2019-03-06T01:35:10.527Z,995.94
2019-03-06T01:36:10.516Z,995.91
2019-03-06T01:37:10.521Z,995.84
2019-03-06T01:38:10.492Z,995.88
2019-03-06T01:39:10.479Z,995.83
2019-03-06T01:40:10.468Z,995.77
2019-03-06T01:41:10.458Z,995.73
2019-03-06T01:42:10.470Z,995.70
2019-03-06T01:43:10.435Z,995.62
2019-03-06T01:44:10.426Z,995.69
2019-03-06T01:45:10.417Z,995.67
2019-03-06T01:46:10.403Z,995.62
2019-03-06T01:47:10.392Z,995.67
2019-03-06T01:48:10.400Z,995.58
2019-03-06T01:49:10.370Z,995.52
2019-03-06T01:50:10.358Z,995.57
2019-03-06T01:51:11.732Z,995.63
2019-03-06T01:52:10.333Z,995.53
2019-03-06T01:53:10.345Z,995.51
2019-03-06T01:54:10.309Z,995.59
2019-03-06T01:55:10.301Z,995.47
2019-03-06T01:56:10.290Z,995.51
2019-03-06T01:57:10.279Z,995.52
2019-03-06T01:58:10.269Z,995.46
2019-03-06T01:59:10.271Z,995.49
2019-03-06T02:00:10.245Z,995.45
2019-03-06T02:01:10.232Z,995.47
2019-03-06T02:02:10.223Z,995.48
2019-03-06T02:03:10.212Z,995.51
2019-03-06T02:04:10.270Z,995.45
2019-03-06T02:05:10.190Z,995.44
2019-03-06T02:06:10.177Z,995.45
2019-03-06T02:07:10.167Z,995.37
2019-03-06T02:08:10.154Z,995.37
2019-03-06T02:09:10.169Z,995.37
2019-03-06T02:10:10.133Z,995.23
2019-03-06T02:11:10.121Z,995.17
2019-03-06T02:12:10.112Z,995.14
2019-03-06T02:13:10.097Z,995.33
2019-03-06T02:14:10.088Z,995.21
2019-03-06T02:15:10.094Z,995.13
2019-03-06T02:16:10.065Z,995.30
2019-03-06T02:17:10.054Z,995.22
2019-03-06T02:18:10.042Z,995.27
2019-03-06T02:19:10.032Z,995.21
2019-03-06T02:20:10.046Z,995.25
2019-03-06T02:21:10.011Z,995.17
2019-03-06T02:22:10.000Z,995.24
2019-03-06T02:23:14.720Z,995.23
2019-03-06T02:24:17.007Z,995.23
2019-03-06T02:25:09.967Z,995.16
2019-03-06T02:26:09.970Z,995.12
2019-03-06T02:27:09.942Z,995.13
2019-03-06T02:28:09.929Z,995.13
2019-03-06T02:29:09.920Z,995.12
2019-03-06T02:30:09.912Z,995.12
2019-03-06T02:31:09.921Z,995.00
2019-03-06T02:32:09.892Z,995.11
2019-03-06T02:33:09.872Z,995.04
2019-03-06T02:34:09.863Z,995.18
2019-03-06T02:35:09.852Z,995.03
2019-03-06T02:36:09.863Z,995.04
2019-03-06T02:37:09.831Z,995.14
2019-03-06T02:38:09.817Z,994.95
2019-03-06T02:39:09.809Z,994.93
2019-03-06T02:40:09.800Z,995.00
2019-03-06T02:41:09.806Z,994.93
2019-03-06T02:42:09.793Z,994.97
2019-03-06T02:43:09.764Z,994.87
2019-03-06T02:44:09.752Z,994.93
2019-03-06T02:45:09.739Z,994.88
2019-03-06T02:46:09.728Z,994.84
2019-03-06T02:47:09.734Z,994.78
2019-03-06T02:48:09.707Z,994.68
2019-03-06T02:49:09.694Z,994.71
2019-03-06T02:50:09.682Z,994.66
2019-03-06T02:51:09.674Z,994.72
2019-03-06T02:52:09.684Z,994.67
2019-03-06T02:53:09.652Z,994.59
2019-03-06T02:54:09.638Z,994.63
2019-03-06T02:55:09.628Z,994.62
2019-03-06T02:56:09.615Z,994.62
2019-03-06T02:57:09.627Z,994.54
2019-03-06T02:58:09.595Z,994.54
2019-03-06T02:59:09.581Z,994.50
2019-03-06T03:00:09.580Z,994.48
2019-03-06T03:01:09.562Z,994.35
2019-03-06T03:02:09.549Z,994.42
2019-03-06T03:03:09.556Z,994.33
2019-03-06T03:04:09.538Z,994.30
2019-03-06T03:05:09.516Z,994.47
2019-03-06T03:06:09.504Z,994.33
2019-03-06T03:07:09.498Z,994.45
2019-03-06T03:08:09.501Z,994.36
2019-03-06T03:09:09.474Z,994.33
2019-03-06T03:10:09.458Z,994.38
2019-03-06T03:11:09.451Z,994.40
2019-03-06T03:12:09.438Z,994.34
2019-03-06T03:13:09.458Z,994.34
2019-03-06T03:14:09.415Z,994.34
2019-03-06T03:15:09.405Z,994.25
2019-03-06T03:16:09.397Z,994.33
2019-03-06T03:17:09.382Z,994.31
2019-03-06T03:18:09.391Z,994.31
2019-03-06T03:19:09.362Z,994.23
2019-03-06T03:20:09.349Z,994.15
2019-03-06T03:21:09.338Z,994.21
2019-03-06T03:22:09.327Z,994.18
2019-03-06T03:23:09.339Z,994.22
2019-03-06T03:24:09.306Z,994.21
2019-03-06T03:25:09.290Z,994.17
2019-03-06T03:26:09.280Z,994.20
2019-03-06T03:27:09.272Z,994.11
2019-03-06T03:28:09.259Z,994.06
2019-03-06T03:29:09.268Z,994.06
2019-03-06T03:30:09.236Z,994.00
2019-03-06T03:31:09.228Z,994.08
2019-03-06T03:32:09.216Z,994.10
2019-03-06T03:33:09.203Z,994.04
2019-03-06T03:34:09.226Z,994.06
2019-03-06T03:35:09.182Z,994.10
2019-03-06T03:36:09.166Z,993.99
2019-03-06T03:37:09.170Z,994.10
2019-03-06T03:38:09.148Z,994.08
2019-03-06T03:39:09.169Z,994.05
2019-03-06T03:40:09.184Z,993.99
2019-03-06T03:41:09.115Z,994.04
2019-03-06T03:42:09.106Z,994.08
2019-03-06T03:43:09.092Z,993.99
2019-03-06T03:44:09.082Z,993.99
2019-03-06T03:45:09.094Z,994.10
2019-03-06T03:46:09.056Z,993.95
2019-03-06T03:47:09.045Z,993.94
2019-03-06T03:48:09.033Z,993.92
2019-03-06T03:49:09.024Z,993.96
2019-03-06T03:50:09.015Z,993.91
2019-03-06T03:51:09.025Z,993.99
2019-03-06T03:52:09.051Z,993.93
2019-03-06T03:53:08.987Z,993.96
2019-03-06T03:54:08.970Z,993.85
2019-03-06T03:55:08.955Z,993.89
2019-03-06T03:56:08.962Z,993.92
2019-03-06T03:57:08.935Z,993.88
2019-03-06T03:58:08.922Z,993.78
2019-03-06T03:59:08.910Z,993.94
2019-03-06T04:00:08.908Z,993.93
2019-03-06T04:01:08.917Z,993.95
2019-03-06T04:02:08.882Z,993.93
2019-03-06T04:03:08.872Z,993.93
2019-03-06T04:04:08.859Z,993.92
2019-03-06T04:05:08.863Z,993.94
2019-03-06T04:06:08.831Z,993.98
2019-03-06T04:07:08.846Z,993.96
2019-03-06T04:08:08.811Z,993.91
2019-03-06T04:09:08.797Z,993.97
2019-03-06T04:10:08.789Z,993.93
2019-03-06T04:11:08.779Z,993.95
2019-03-06T04:12:08.788Z,993.96
2019-03-06T04:13:08.763Z,993.88
2019-03-06T04:14:08.742Z,993.80
2019-03-06T04:15:08.731Z,993.76
2019-03-06T04:16:08.721Z,993.86
2019-03-06T04:17:08.709Z,993.73
2019-03-06T04:18:08.719Z,993.77
2019-03-06T04:19:08.689Z,993.75
2019-03-06T04:20:08.675Z,993.84
2019-03-06T04:21:08.709Z,993.76
2019-03-06T04:22:08.651Z,993.65
2019-03-06T04:23:08.737Z,993.60
2019-03-06T04:24:08.630Z,993.63
2019-03-06T04:25:08.619Z,993.61
2019-03-06T04:26:08.608Z,993.61
2019-03-06T04:27:08.602Z,993.57
2019-03-06T04:28:08.584Z,993.58
2019-03-06T04:29:08.593Z,993.53
2019-03-06T04:30:08.563Z,993.53
2019-03-06T04:31:08.548Z,993.51
2019-03-06T04:32:08.541Z,993.46
2019-03-06T04:33:08.567Z,993.55
2019-03-06T04:34:08.516Z,993.47
2019-03-06T04:35:08.506Z,993.49
2019-03-06T04:36:08.496Z,993.48
2019-03-06T04:37:08.482Z,993.57
2019-03-06T04:38:08.472Z,993.60
2019-03-06T04:39:08.483Z,993.59
2019-03-06T04:40:08.450Z,993.64
2019-03-06T04:41:08.438Z,993.65
2019-03-06T04:42:08.427Z,993.70
2019-03-06T04:43:08.414Z,993.74
2019-03-06T04:44:08.420Z,993.81
2019-03-06T04:45:08.394Z,993.61
2019-03-06T04:46:08.382Z,993.73
2019-03-06T04:47:08.371Z,993.60
2019-03-06T04:48:08.359Z,993.64
2019-03-06T04:49:08.366Z,993.64
2019-03-06T04:50:08.337Z,993.56
2019-03-06T04:51:08.324Z,993.57
2019-03-06T04:52:08.312Z,993.57
2019-03-06T04:53:08.305Z,993.51
2019-03-06T04:54:08.310Z,993.44
2019-03-06T04:55:08.280Z,993.53
2019-03-06T04:56:08.269Z,993.58
2019-03-06T04:57:08.260Z,993.44
2019-03-06T04:58:08.245Z,993.44
2019-03-06T04:59:08.258Z,993.33
2019-03-06T05:00:08.226Z,993.37
2019-03-06T05:01:08.213Z,993.38
2019-03-06T05:02:08.209Z,993.40
2019-03-06T05:03:08.190Z,993.44
2019-03-06T05:04:08.178Z,993.45
2019-03-06T05:05:08.187Z,993.37
2019-03-06T05:06:08.158Z,993.35
2019-03-06T05:07:08.145Z,993.36
2019-03-06T05:08:08.136Z,993.35
2019-03-06T05:09:08.122Z,993.36
2019-03-06T05:10:08.152Z,993.47
2019-03-06T05:11:08.099Z,993.33
2019-03-06T05:12:08.088Z,993.30
2019-03-06T05:13:08.086Z,993.24
2019-03-06T05:14:08.065Z,993.17
2019-03-06T05:15:08.051Z,993.16
2019-03-06T05:16:08.058Z,993.15
2019-03-06T05:17:08.030Z,993.19
2019-03-06T05:18:08.016Z,993.10
2019-03-06T05:19:08.007Z,993.16
2019-03-06T05:20:07.993Z,993.09
2019-03-06T05:21:07.999Z,993.11
2019-03-06T05:22:07.971Z,992.95
2019-03-06T05:23:07.965Z,993.02
2019-03-06T05:24:07.947Z,993.01
2019-03-06T05:25:07.934Z,992.93
2019-03-06T05:26:07.942Z,992.88
2019-03-06T05:27:07.913Z,992.93
2019-03-06T05:28:07.900Z,992.87
2019-03-06T05:29:07.888Z,992.84
2019-03-06T05:30:07.876Z,992.76
2019-03-06T05:31:07.881Z,992.82
2019-03-06T05:32:07.853Z,992.81
2019-03-06T05:33:07.840Z,992.71
2019-03-06T05:34:07.831Z,992.78
2019-03-06T05:35:07.818Z,992.85
2019-03-06T05:36:07.828Z,992.91
2019-03-06T05:37:07.793Z,992.86
2019-03-06T05:38:07.782Z,992.94
2019-03-06T05:39:07.770Z,992.92
2019-03-06T05:40:07.757Z,992.89
2019-03-06T05:41:07.744Z,992.91
2019-03-06T05:42:07.752Z,992.98
2019-03-06T05:43:07.720Z,992.95
2019-03-06T05:44:07.712Z,992.96
2019-03-06T05:45:07.699Z,992.93
2019-03-06T05:46:07.687Z,992.92
2019-03-06T05:47:07.695Z,992.85
2019-03-06T05:48:07.665Z,992.81
2019-03-06T05:49:07.656Z,992.78
2019-03-06T05:50:07.647Z,992.88
2019-03-06T05:51:07.628Z,992.85
2019-03-06T05:52:07.641Z,992.86
2019-03-06T05:53:07.610Z,992.88
2019-03-06T05:54:07.615Z,992.90
2019-03-06T05:55:07.586Z,992.89
2019-03-06T05:56:07.574Z,992.90
2019-03-06T05:57:07.563Z,992.85
2019-03-06T05:58:07.570Z,992.74
2019-03-06T05:59:07.538Z,992.80
2019-03-06T06:00:07.528Z,992.81
2019-03-06T06:01:07.517Z,992.82
2019-03-06T06:02:07.516Z,992.80
2019-03-06T06:03:07.520Z,992.73
2019-03-06T06:04:07.484Z,992.76
2019-03-06T06:05:07.473Z,992.68
2019-03-06T06:06:07.462Z,992.64
2019-03-06T06:07:07.448Z,992.65
2019-03-06T06:08:07.437Z,992.51
2019-03-06T06:09:07.447Z,992.57
2019-03-06T06:10:07.417Z,992.57
2019-03-06T06:11:07.404Z,992.53
2019-03-06T06:12:07.395Z,992.48
2019-03-06T06:13:07.385Z,992.40
2019-03-06T06:14:07.414Z,992.42
2019-03-06T06:15:07.361Z,992.39
2019-03-06T06:16:07.349Z,992.51
2019-03-06T06:17:07.339Z,992.48
2019-03-06T06:18:07.328Z,992.45
2019-03-06T06:19:07.314Z,992.41
2019-03-06T06:20:07.323Z,992.39
2019-03-06T06:21:07.295Z,992.38
2019-03-06T06:22:07.282Z,992.39
2019-03-06T06:23:07.271Z,992.33
2019-03-06T06:24:07.258Z,992.20
2019-03-06T06:25:07.264Z,992.23
2019-03-06T06:26:07.236Z,992.22
2019-03-06T06:27:07.224Z,992.24
2019-03-06T06:28:07.210Z,992.21
2019-03-06T06:29:07.200Z,992.25
2019-03-06T06:30:07.207Z,992.25
2019-03-06T06:31:07.175Z,992.16
2019-03-06T06:32:07.171Z,992.12
2019-03-06T06:33:07.153Z,992.17
2019-03-06T06:34:07.140Z,992.13
2019-03-06T06:35:07.153Z,992.13
2019-03-06T06:36:07.118Z,992.02
2019-03-06T06:37:07.107Z,992.05
2019-03-06T06:38:07.098Z,992.02
2019-03-06T06:39:07.086Z,992.10
2019-03-06T06:40:07.075Z,991.94
2019-03-06T06:41:07.084Z,991.89
2019-03-06T06:42:07.052Z,991.90
2019-03-06T06:43:07.041Z,991.93
2019-03-06T06:44:07.035Z,991.93
2019-03-06T06:45:07.034Z,991.92
2019-03-06T06:46:07.669Z,991.89
2019-03-06T06:47:06.997Z,991.90
2019-03-06T06:48:06.987Z,991.87
2019-03-06T06:49:06.972Z,991.85
2019-03-06T06:50:06.980Z,991.82
2019-03-06T06:51:06.949Z,991.76
2019-03-06T06:52:06.937Z,991.86
2019-03-06T06:53:06.924Z,991.83
2019-03-06T06:54:06.914Z,991.81
2019-03-06T06:55:06.940Z,991.71
2019-03-06T06:56:06.888Z,991.77
2019-03-06T06:57:06.877Z,991.65
2019-03-06T06:58:07.580Z,991.66
2019-03-06T06:59:06.859Z,991.63
2019-03-06T07:00:06.885Z,991.58
2019-03-06T07:01:06.850Z,991.55
2019-03-06T07:02:06.822Z,991.56
2019-03-06T07:03:08.056Z,991.56
2019-03-06T07:04:06.794Z,991.51
2019-03-06T07:05:06.780Z,991.53
2019-03-06T07:06:06.795Z,991.53
2019-03-06T07:07:06.759Z,991.50
2019-03-06T07:08:06.747Z,991.45
2019-03-06T07:09:06.734Z,991.37
2019-03-06T07:10:06.724Z,991.44
2019-03-06T07:11:06.711Z,991.34
2019-03-06T07:12:06.716Z,991.30
2019-03-06T07:13:06.687Z,991.29
2019-03-06T07:14:06.676Z,991.27
2019-03-06T07:15:06.664Z,991.15
2019-03-06T07:16:06.654Z,991.22
2019-03-06T07:17:06.660Z,991.23
2019-03-06T07:18:06.632Z,991.25
2019-03-06T07:19:06.617Z,991.14
2019-03-06T07:20:06.605Z,991.07
2019-03-06T07:21:06.596Z,991.08
2019-03-06T07:22:06.603Z,991.05
2019-03-06T07:23:06.573Z,991.04
2019-03-06T07:24:06.559Z,991.08
2019-03-06T07:25:06.546Z,991.07
2019-03-06T07:26:06.537Z,990.99
2019-03-06T07:27:06.524Z,990.97
2019-03-06T07:28:06.532Z,990.98
2019-03-06T07:29:06.500Z,990.97
2019-03-06T07:30:06.492Z,991.03
2019-03-06T07:31:06.481Z,990.95
2019-03-06T07:32:06.469Z,990.81
2019-03-06T07:33:06.477Z,990.85
2019-03-06T07:34:06.443Z,990.89
2019-03-06T07:35:06.431Z,990.81
2019-03-06T07:36:06.419Z,990.90
2019-03-06T07:37:06.408Z,990.76
2019-03-06T07:38:06.398Z,990.85
2019-03-06T07:39:06.404Z,990.74
2019-03-06T07:40:06.376Z,990.76
2019-03-06T07:41:06.364Z,990.72
2019-03-06T07:42:06.362Z,990.78
2019-03-06T07:43:06.340Z,990.68
2019-03-06T07:44:06.354Z,990.70
2019-03-06T07:45:06.319Z,990.77
2019-03-06T07:46:06.308Z,990.74
2019-03-06T07:47:06.294Z,990.75
2019-03-06T07:48:06.283Z,990.73
2019-03-06T07:49:06.270Z,990.70
2019-03-06T07:50:06.280Z,990.76
2019-03-06T07:51:06.249Z,990.69
2019-03-06T07:52:06.238Z,990.73
2019-03-06T07:53:06.227Z,990.72
2019-03-06T07:54:06.216Z,990.85
2019-03-06T07:55:06.232Z,990.73
2019-03-06T07:56:06.192Z,990.70
2019-03-06T07:57:06.178Z,990.75
2019-03-06T07:58:06.168Z,990.86
2019-03-06T07:59:06.155Z,990.76
2019-03-06T08:00:06.169Z,990.83
2019-03-06T08:01:06.135Z,990.77
2019-03-06T08:02:06.124Z,990.66
2019-03-06T08:03:06.113Z,990.77
2019-03-06T08:04:06.102Z,990.83
2019-03-06T08:05:06.093Z,990.97
2019-03-06T08:06:06.096Z,990.85
2019-03-06T08:07:06.067Z,990.90
2019-03-06T08:08:06.069Z,990.91
2019-03-06T08:09:06.044Z,990.90
2019-03-06T08:10:06.032Z,990.96
2019-03-06T08:11:06.045Z,990.88
2019-03-06T08:12:06.012Z,990.86
2019-03-06T08:13:05.997Z,990.82
2019-03-06T08:14:05.986Z,990.87
2019-03-06T08:15:05.972Z,990.79
2019-03-06T08:16:05.963Z,990.71
2019-03-06T08:17:05.992Z,990.66
2019-03-06T08:18:05.942Z,990.65
2019-03-06T08:19:05.931Z,990.63
2019-03-06T08:20:05.915Z,990.78
2019-03-06T08:21:05.906Z,990.72
2019-03-06T08:22:05.893Z,990.69
2019-03-06T08:23:05.903Z,990.74
2019-03-06T08:24:12.901Z,990.57
2019-03-06T08:25:05.863Z,990.46
2019-03-06T08:26:05.844Z,990.56
2019-03-06T08:27:05.836Z,990.48
2019-03-06T08:28:05.845Z,990.51
2019-03-06T08:29:05.814Z,990.48
2019-03-06T08:30:05.802Z,990.36
2019-03-06T08:31:05.790Z,990.44
2019-03-06T08:32:05.780Z,990.44
2019-03-06T08:33:05.786Z,990.39
2019-03-06T08:34:05.759Z,990.47
2019-03-06T08:35:05.745Z,990.45
2019-03-06T08:36:05.735Z,990.38
2019-03-06T08:37:05.722Z,990.38
2019-03-06T08:38:05.712Z,990.27
2019-03-06T08:39:05.718Z,990.44
2019-03-06T08:40:05.689Z,990.41
2019-03-06T08:41:06.844Z,990.40
2019-03-06T08:42:05.669Z,990.49
2019-03-06T08:43:05.653Z,990.37
2019-03-06T08:44:05.681Z,990.39
2019-03-06T08:45:05.631Z,990.29
2019-03-06T08:46:05.620Z,990.36
2019-03-06T08:47:05.609Z,990.21
2019-03-06T08:48:05.596Z,990.20
2019-03-06T08:49:05.585Z,990.30
2019-03-06T08:50:05.599Z,990.34
2019-03-06T08:51:05.562Z,990.17
2019-03-06T08:52:05.550Z,990.35
2019-03-06T08:53:05.541Z,990.29
2019-03-06T08:54:05.528Z,990.15
2019-03-06T08:55:05.515Z,990.17
2019-03-06T08:56:05.525Z,990.21
2019-03-06T08:57:05.491Z,990.19
2019-03-06T08:58:05.485Z,990.12
2019-03-06T08:59:05.469Z,990.15
2019-03-06T09:00:05.457Z,990.21
2019-03-06T09:01:05.470Z,990.39
2019-03-06T09:02:05.436Z,990.28
2019-03-06T09:03:05.422Z,990.02
2019-03-06T09:04:05.420Z,990.12
2019-03-06T09:05:05.401Z,990.16
2019-03-06T09:06:05.387Z,990.30
2019-03-06T09:07:05.395Z,990.15
2019-03-06T09:08:05.365Z,990.14
2019-03-06T09:09:05.356Z,990.21
2019-03-06T09:10:05.342Z,990.40
2019-03-06T09:11:05.329Z,990.25
2019-03-06T09:12:05.343Z,990.23
2019-03-06T09:13:05.309Z,990.16
2019-03-06T09:14:05.296Z,990.20
2019-03-06T09:15:05.284Z,990.37
2019-03-06T09:16:05.272Z,990.33
2019-03-06T09:17:05.259Z,990.15
2019-03-06T09:18:09.157Z,990.33
2019-03-06T09:19:05.238Z,990.51
2019-03-06T09:20:05.228Z,990.47
2019-03-06T09:21:05.215Z,990.23
2019-03-06T09:22:05.203Z,990.34
2019-03-06T09:23:05.210Z,990.25
2019-03-06T09:24:05.182Z,990.17
2019-03-06T09:25:05.172Z,990.22
2019-03-06T09:26:05.159Z,990.06
2019-03-06T09:27:05.146Z,990.11
2019-03-06T09:28:05.160Z,990.10
2019-03-06T09:29:05.123Z,990.10
2019-03-06T09:30:05.110Z,990.16
2019-03-06T09:31:05.100Z,990.08
2019-03-06T09:32:05.089Z,990.15
2019-03-06T09:33:05.094Z,990.04
2019-03-06T09:34:05.066Z,989.98
2019-03-06T09:35:05.054Z,989.90
2019-03-06T09:36:05.041Z,989.95
2019-03-06T09:37:05.030Z,989.88
2019-03-06T09:38:10.933Z,989.81
2019-03-06T09:39:06.003Z,989.87
2019-03-06T09:40:06.181Z,989.67
2019-03-06T09:41:04.984Z,989.69
2019-03-06T09:42:04.970Z,989.59
2019-03-06T09:43:04.960Z,989.68
2019-03-06T09:44:04.965Z,989.57
2019-03-06T09:45:04.982Z,989.47
2019-03-06T09:46:04.925Z,989.49
2019-03-06T09:47:04.912Z,989.60
2019-03-06T09:48:04.903Z,989.36
2019-03-06T09:49:11.312Z,989.46
2019-03-06T09:50:05.879Z,989.36
2019-03-06T09:51:04.872Z,989.40
2019-03-06T09:52:04.855Z,989.33
2019-03-06T09:53:04.843Z,989.24
2019-03-06T09:54:04.836Z,989.24
2019-03-06T09:55:04.841Z,989.14
2019-03-06T09:56:04.813Z,989.23
2019-03-06T09:57:04.796Z,989.20
2019-03-06T09:58:04.785Z,989.15
2019-03-06T09:59:04.775Z,989.08
2019-03-06T10:00:04.781Z,989.02
2019-03-06T10:01:04.752Z,989.09
2019-03-06T10:02:07.020Z,989.14
2019-03-06T10:03:04.729Z,989.16
2019-03-06T10:04:04.716Z,989.19
2019-03-06T10:05:04.723Z,989.06
2019-03-06T10:06:04.706Z,989.07
2019-03-06T10:07:04.682Z,989.04
2019-03-06T10:08:04.670Z,989.11
2019-03-06T10:09:04.662Z,989.00
2019-03-06T10:10:04.668Z,988.88
2019-03-06T10:11:04.632Z,989.08
2019-03-06T10:12:04.621Z,988.91
2019-03-06T10:13:04.610Z,988.82
2019-03-06T10:14:04.598Z,988.85
2019-03-06T10:15:04.590Z,988.78
2019-03-06T10:16:04.594Z,988.67
2019-03-06T10:17:04.564Z,988.74
2019-03-06T10:18:04.552Z,988.72
2019-03-06T10:19:04.541Z,988.83
2019-03-06T10:20:04.531Z,988.70
2019-03-06T10:21:04.538Z,988.54
2019-03-06T10:22:04.506Z,988.69
2019-03-06T10:23:04.494Z,988.75
2019-03-06T10:24:04.483Z,988.60
2019-03-06T10:25:04.475Z,988.65
2019-03-06T10:26:04.481Z,988.64
2019-03-06T10:27:04.452Z,988.64
2019-03-06T10:28:06.670Z,988.63
2019-03-06T10:29:04.428Z,988.64
2019-03-06T10:30:04.425Z,988.63
2019-03-06T10:31:04.429Z,988.67
2019-03-06T10:32:04.402Z,988.69
2019-03-06T10:33:04.383Z,988.71
2019-03-06T10:34:04.371Z,988.78
2019-03-06T10:35:04.359Z,988.85
2019-03-06T10:36:04.368Z,988.90
2019-03-06T10:38:04.326Z,988.80
2019-03-06T10:39:04.316Z,989.01
2019-03-06T10:40:04.301Z,989.04
2019-03-06T10:41:04.292Z,988.78
2019-03-06T10:42:04.304Z,988.85
2019-03-06T10:43:04.269Z,988.85
2019-03-06T10:44:04.257Z,988.99
2019-03-06T10:45:04.245Z,988.77
2019-03-06T10:46:04.233Z,988.68
2019-03-06T10:47:04.223Z,988.78
2019-03-06T10:48:04.230Z,988.84
2019-03-06T10:49:04.198Z,988.76
2019-03-06T10:50:04.184Z,988.75
2019-03-06T10:51:04.175Z,988.82
2019-03-06T10:52:04.165Z,988.90
2019-03-06T10:53:04.170Z,988.78
2019-03-06T10:54:04.144Z,988.85
2019-03-06T10:55:04.133Z,988.83
2019-03-06T10:56:04.117Z,988.66
2019-03-06T10:57:04.104Z,988.65
2019-03-06T10:58:04.119Z,989.00
2019-03-06T10:59:04.084Z,988.94
2019-03-06T11:00:04.070Z,988.85
2019-03-06T11:01:04.059Z,988.72
2019-03-06T11:02:04.045Z,988.81
2019-03-06T11:03:04.034Z,988.52
2019-03-06T11:04:04.043Z,988.78
2019-03-06T11:05:04.012Z,989.20
2019-03-06T11:06:04.002Z,988.72
2019-03-06T11:07:03.989Z,988.70
2019-03-06T11:08:03.981Z,988.68
2019-03-06T11:09:03.988Z,988.72
2019-03-06T11:10:03.953Z,988.99
2019-03-06T11:11:03.944Z,988.64
2019-03-06T11:12:03.930Z,988.38
2019-03-06T11:13:03.918Z,988.62
2019-03-06T11:14:06.359Z,988.60
2019-03-06T11:15:03.936Z,988.74
2019-03-06T11:16:03.883Z,988.74
2019-03-06T11:17:03.872Z,988.60
2019-03-06T11:18:03.860Z,988.56
2019-03-06T11:19:03.847Z,988.63
2019-03-06T11:20:03.836Z,988.82
2019-03-06T11:21:03.843Z,988.59
2019-03-06T11:22:03.812Z,988.53
2019-03-06T11:23:03.801Z,988.52
2019-03-06T11:24:03.791Z,988.69
2019-03-06T11:25:03.779Z,988.61
2019-03-06T11:26:03.787Z,988.44
2019-03-06T11:27:03.755Z,988.52
2019-03-06T11:28:03.748Z,988.45
2019-03-06T11:29:03.733Z,988.50
2019-03-06T11:30:03.721Z,988.41
2019-03-06T11:31:03.732Z,988.40
2019-03-06T11:32:03.697Z,988.54
2019-03-06T11:33:03.687Z,988.37
2019-03-06T11:34:03.676Z,988.50
2019-03-06T11:35:03.666Z,988.48
2019-03-06T11:36:03.652Z,988.53
2019-03-06T11:37:03.665Z,988.41
2019-03-06T11:38:03.633Z,988.27
2019-03-06T11:39:03.619Z,988.41
2019-03-06T11:40:03.604Z,988.29
2019-03-06T11:41:05.166Z,988.25
2019-03-06T11:42:03.587Z,988.18
2019-03-06T11:43:03.593Z,988.21
2019-03-06T11:44:03.557Z,988.22
2019-03-06T11:45:03.551Z,988.03
2019-03-06T11:46:03.536Z,988.14
2019-03-06T11:47:03.524Z,988.05
2019-03-06T11:48:03.533Z,987.94
2019-03-06T11:49:06.429Z,987.96
2019-03-06T11:50:03.490Z,987.87
2019-03-06T11:51:03.478Z,988.00
2019-03-06T11:52:03.471Z,988.06
2019-03-06T11:53:03.475Z,988.04
2019-03-06T11:54:03.443Z,987.94
2019-03-06T11:55:06.345Z,987.86
2019-03-06T11:56:03.419Z,987.96
2019-03-06T11:57:03.409Z,987.96
2019-03-06T11:58:03.396Z,987.91
2019-03-06T11:59:03.405Z,987.88
2019-03-06T12:00:03.378Z,987.85
2019-03-06T12:01:03.362Z,987.77
2019-03-06T12:02:03.351Z,987.79
2019-03-06T12:03:03.368Z,987.63
2019-03-06T12:04:03.329Z,987.66
2019-03-06T12:05:03.317Z,987.57
2019-03-06T12:06:03.308Z,987.74
2019-03-06T12:07:03.294Z,987.50
2019-03-06T12:08:03.283Z,987.67
2019-03-06T12:09:03.291Z,987.46
2019-03-06T12:10:03.261Z,987.46
2019-03-06T12:11:03.249Z,987.59
2019-03-06T12:12:03.241Z,987.51
2019-03-06T12:13:03.225Z,987.51
2019-03-06T12:14:03.231Z,987.44
2019-03-06T12:15:03.202Z,987.41
2019-03-06T12:16:03.188Z,987.30
2019-03-06T12:17:03.182Z,987.41
2019-03-06T12:18:03.167Z,987.31
2019-03-06T12:19:03.179Z,987.21
2019-03-06T12:20:08.069Z,987.15
2019-03-06T12:21:04.132Z,987.06
2019-03-06T12:22:03.120Z,987.13
2019-03-06T12:23:03.115Z,987.19
2019-03-06T12:24:03.117Z,987.05
2019-03-06T12:25:03.086Z,987.09
2019-03-06T12:26:03.074Z,987.06
2019-03-06T12:27:03.062Z,987.12
2019-03-06T12:28:03.052Z,987.22
2019-03-06T12:29:03.061Z,987.10